sensor_id;sensor_type;location;lat;lon;timestamp;pressure;altitude;pressure_sealevel;temperature;humidity
40992;BME280;29633;49.168;9.848;2023-02-11T00:00:34;98781.06;;;5.49;53.46
40992;BME280;29633;49.168;9.848;2023-02-11T00:02:59;98774.97;;;5.51;53.47
40992;BME280;29633;49.168;9.848;2023-02-11T00:05:25;98774.09;;;5.52;53.50
40992;BME280;29633;49.168;9.848;2023-02-11T00:07:50;98773.25;;;5.52;53.36
40992;BME280;29633;49.168;9.848;2023-02-11T00:10:16;98774.13;;;5.51;53.47
40992;BME280;29633;49.168;9.848;2023-02-11T00:12:42;98773.34;;;5.49;53.61
40992;BME280;29633;49.168;9.848;2023-02-11T00:15:08;98771.69;;;5.46;53.55
40992;BME280;29633;49.168;9.848;2023-02-11T00:17:34;98765.66;;;5.47;53.45
40992;BME280;29633;49.168;9.848;2023-02-11T00:20:00;98770.84;;;5.45;53.62
40992;BME280;29633;49.168;9.848;2023-02-11T00:22:25;98769.13;;;5.46;53.74
40992;BME280;29633;49.168;9.848;2023-02-11T00:24:51;98771.75;;;5.43;53.58
40992;BME280;29633;49.168;9.848;2023-02-11T00:27:17;98772.59;;;5.43;53.66
40992;BME280;29633;49.168;9.848;2023-02-11T00:29:42;98764.09;;;5.41;53.70
40992;BME280;29633;49.168;9.848;2023-02-11T00:32:08;98766.00;;;5.35;53.76
40992;BME280;29633;49.168;9.848;2023-02-11T00:34:35;98751.53;;;5.31;53.76
40992;BME280;29633;49.168;9.848;2023-02-11T00:37:01;98749.94;;;5.27;53.63
40992;BME280;29633;49.168;9.848;2023-02-11T00:39:27;98750.81;;;5.26;53.80
40992;BME280;29633;49.168;9.848;2023-02-11T00:41:53;98749.28;;;5.20;53.77
40992;BME280;29633;49.168;9.848;2023-02-11T00:44:18;98755.53;;;5.10;53.88
40992;BME280;29633;49.168;9.848;2023-02-11T00:46:44;98754.91;;;5.02;53.99
40992;BME280;29633;49.168;9.848;2023-02-11T00:49:10;98741.41;;;4.94;54.02
40992;BME280;29633;49.168;9.848;2023-02-11T00:51:36;98739.81;;;4.88;53.93
40992;BME280;29633;49.168;9.848;2023-02-11T00:54:01;98743.31;;;4.87;54.02
40992;BME280;29633;49.168;9.848;2023-02-11T00:56:27;98730.47;;;4.86;53.99
40992;BME280;29633;49.168;9.848;2023-02-11T00:58:53;98731.41;;;4.83;54.11
40992;BME280;29633;49.168;9.848;2023-02-11T01:01:18;98742.63;;;4.81;54.08
40992;BME280;29633;49.168;9.848;2023-02-11T01:03:44;98735.72;;;4.81;54.01
40992;BME280;29633;49.168;9.848;2023-02-11T01:06:10;98734.06;;;4.80;54.08
40992;BME280;29633;49.168;9.848;2023-02-11T01:08:36;98727.22;;;4.79;53.93
40992;BME280;29633;49.168;9.848;2023-02-11T01:11:04;98732.28;;;4.82;54.03
40992;BME280;29633;49.168;9.848;2023-02-11T01:13:31;98732.13;;;4.88;53.93
40992;BME280;29633;49.168;9.848;2023-02-11T01:15:57;98729.56;;;4.88;53.83
40992;BME280;29633;49.168;9.848;2023-02-11T01:18:23;98729.59;;;4.87;54.05
40992;BME280;29633;49.168;9.848;2023-02-11T01:20:50;98739.13;;;4.83;53.87
40992;BME280;29633;49.168;9.848;2023-02-11T01:23:16;98736.50;;;4.85;53.96
40992;BME280;29633;49.168;9.848;2023-02-11T01:25:42;98734.78;;;4.85;54.02
40992;BME280;29633;49.168;9.848;2023-02-11T01:28:14;98734.69;;;4.88;54.02
40992;BME280;29633;49.168;9.848;2023-02-11T01:30:40;98736.28;;;4.92;53.95
40992;BME280;29633;49.168;9.848;2023-02-11T01:33:06;98735.34;;;4.96;53.93
40992;BME280;29633;49.168;9.848;2023-02-11T01:35:31;98736.94;;;5.01;53.76
40992;BME280;29633;49.168;9.848;2023-02-11T01:37:57;98737.72;;;5.04;53.81
40992;BME280;29633;49.168;9.848;2023-02-11T01:40:23;98738.56;;;5.05;53.78
40992;BME280;29633;49.168;9.848;2023-02-11T01:42:48;98735.97;;;5.06;53.84
40992;BME280;29633;49.168;9.848;2023-02-11T01:48:23;98735.03;;;5.09;53.92
40992;BME280;29633;49.168;9.848;2023-02-11T01:50:51;98730.75;;;5.08;53.88
40992;BME280;29633;49.168;9.848;2023-02-11T01:53:19;98720.38;;;5.11;53.82
40992;BME280;29633;49.168;9.848;2023-02-11T01:56:04;98712.59;;;5.14;53.93
40992;BME280;29633;49.168;9.848;2023-02-11T01:58:48;98699.72;;;5.14;53.94
40992;BME280;29633;49.168;9.848;2023-02-11T02:01:18;98691.34;;;5.07;54.13
40992;BME280;29633;49.168;9.848;2023-02-11T02:03:46;98685.44;;;5.04;53.97
40992;BME280;29633;49.168;9.848;2023-02-11T02:06:34;98676.13;;;5.00;54.15
40992;BME280;29633;49.168;9.848;2023-02-11T02:09:15;98687.25;;;5.00;54.01
40992;BME280;29633;49.168;9.848;2023-02-11T02:11:44;98679.47;;;5.03;54.23
40992;BME280;29633;49.168;9.848;2023-02-11T02:14:09;98685.44;;;5.04;54.20
40992;BME280;29633;49.168;9.848;2023-02-11T02:16:35;98685.38;;;5.07;54.08
40992;BME280;29633;49.168;9.848;2023-02-11T02:22:32;98677.44;;;5.14;54.29
40992;BME280;29633;49.168;9.848;2023-02-11T02:27:54;98669.78;;;5.13;54.32
40992;BME280;29633;49.168;9.848;2023-02-11T02:30:41;98658.69;;;5.11;54.30
40992;BME280;29633;49.168;9.848;2023-02-11T02:35:51;98647.94;;;4.98;54.64
40992;BME280;29633;49.168;9.848;2023-02-11T02:38:32;98643.63;;;4.99;54.37
40992;BME280;29633;49.168;9.848;2023-02-11T02:43:29;98636.91;;;4.94;54.69
40992;BME280;29633;49.168;9.848;2023-02-11T02:45:55;98630.09;;;4.92;54.62
40992;BME280;29633;49.168;9.848;2023-02-11T02:48:33;98622.44;;;4.90;54.75
40992;BME280;29633;49.168;9.848;2023-02-11T02:53:54;98629.94;;;4.98;54.59
40992;BME280;29633;49.168;9.848;2023-02-11T02:59:07;98622.16;;;5.00;54.53
40992;BME280;29633;49.168;9.848;2023-02-11T03:02:02;98627.31;;;5.00;54.54
40992;BME280;29633;49.168;9.848;2023-02-11T03:09:56;98637.56;;;5.01;54.68
40992;BME280;29633;49.168;9.848;2023-02-11T03:12:25;98639.09;;;5.07;54.75
40992;BME280;29633;49.168;9.848;2023-02-11T03:14:52;98649.25;;;5.11;54.59
40992;BME280;29633;49.168;9.848;2023-02-11T03:17:18;98646.59;;;5.14;54.94
40992;BME280;29633;49.168;9.848;2023-02-11T03:19:45;98643.03;;;5.20;54.75
40992;BME280;29633;49.168;9.848;2023-02-11T03:22:21;98639.56;;;5.21;54.78
40992;BME280;29633;49.168;9.848;2023-02-11T03:24:49;98635.22;;;5.23;54.76
40992;BME280;29633;49.168;9.848;2023-02-11T03:27:26;98633.63;;;5.19;54.95
40992;BME280;29633;49.168;9.848;2023-02-11T03:30:09;98626.88;;;5.15;54.88
40992;BME280;29633;49.168;9.848;2023-02-11T03:32:42;98626.97;;;5.12;55.05
40992;BME280;29633;49.168;9.848;2023-02-11T03:37:55;98621.84;;;5.10;54.92
40992;BME280;29633;49.168;9.848;2023-02-11T03:40:31;98620.97;;;5.11;55.19
40992;BME280;29633;49.168;9.848;2023-02-11T03:43:04;98624.38;;;5.13;54.92
40992;BME280;29633;49.168;9.848;2023-02-11T03:45:31;98632.06;;;5.13;55.03
40992;BME280;29633;49.168;9.848;2023-02-11T03:48:01;98627.81;;;5.12;54.95
40992;BME280;29633;49.168;9.848;2023-02-11T03:50:29;98624.41;;;5.12;54.98
40992;BME280;29633;49.168;9.848;2023-02-11T03:52:56;98621.03;;;5.10;54.99
40992;BME280;29633;49.168;9.848;2023-02-11T03:55:23;98620.13;;;5.11;55.09
40992;BME280;29633;49.168;9.848;2023-02-11T03:57:50;98631.16;;;5.14;55.04
40992;BME280;29633;49.168;9.848;2023-02-11T04:00:16;98629.34;;;5.18;55.03
40992;BME280;29633;49.168;9.848;2023-02-11T04:02:42;98631.91;;;5.18;55.15
40992;BME280;29633;49.168;9.848;2023-02-11T04:05:10;98635.31;;;5.20;55.05
40992;BME280;29633;49.168;9.848;2023-02-11T04:07:36;98637.81;;;5.21;55.08
40992;BME280;29633;49.168;9.848;2023-02-11T04:10:02;98636.16;;;5.20;55.07
40992;BME280;29633;49.168;9.848;2023-02-11T04:12:28;98647.28;;;5.21;55.20
40992;BME280;29633;49.168;9.848;2023-02-11T04:14:54;98646.44;;;5.20;55.37
40992;BME280;29633;49.168;9.848;2023-02-11T04:17:19;98645.50;;;5.23;55.15
40992;BME280;29633;49.168;9.848;2023-02-11T04:19:45;98648.78;;;5.28;55.03
40992;BME280;29633;49.168;9.848;2023-02-11T04:22:11;98644.41;;;5.31;55.17
40992;BME280;29633;49.168;9.848;2023-02-11T04:24:36;98648.47;;;5.38;55.00
40992;BME280;29633;49.168;9.848;2023-02-11T04:27:02;98652.56;;;5.44;55.19
40992;BME280;29633;49.168;9.848;2023-02-11T04:29:28;98645.56;;;5.49;54.98
40992;BME280;29633;49.168;9.848;2023-02-11T04:31:54;98639.38;;;5.55;55.16
40992;BME280;29633;49.168;9.848;2023-02-11T04:34:20;98644.41;;;5.59;55.27
40992;BME280;29633;49.168;9.848;2023-02-11T04:36:45;98633.03;;;5.66;55.04
40992;BME280;29633;49.168;9.848;2023-02-11T04:39:11;98629.47;;;5.70;55.00
40992;BME280;29633;49.168;9.848;2023-02-11T04:41:37;98625.22;;;5.69;55.16
40992;BME280;29633;49.168;9.848;2023-02-11T04:44:03;98619.19;;;5.70;55.18
40992;BME280;29633;49.168;9.848;2023-02-11T04:46:28;98613.97;;;5.72;55.14
40992;BME280;29633;49.168;9.848;2023-02-11T04:48:57;98600.19;;;5.74;55.17
40992;BME280;29633;49.168;9.848;2023-02-11T04:51:23;98595.97;;;5.72;55.28
40992;BME280;29633;49.168;9.848;2023-02-11T04:53:48;98594.19;;;5.74;55.17
40992;BME280;29633;49.168;9.848;2023-02-11T04:56:14;98590.88;;;5.70;55.35
40992;BME280;29633;49.168;9.848;2023-02-11T04:58:39;98597.78;;;5.68;55.34
40992;BME280;29633;49.168;9.848;2023-02-11T05:01:07;98597.78;;;5.68;55.44
40992;BME280;29633;49.168;9.848;2023-02-11T05:03:33;98599.47;;;5.69;55.23
40992;BME280;29633;49.168;9.848;2023-02-11T05:05:58;98608.94;;;5.69;55.27
40992;BME280;29633;49.168;9.848;2023-02-11T05:08:24;98601.94;;;5.72;55.44
40992;BME280;29633;49.168;9.848;2023-02-11T05:10:49;98601.03;;;5.75;55.45
40992;BME280;29633;49.168;9.848;2023-02-11T05:13:15;98598.47;;;5.75;55.42
40992;BME280;29633;49.168;9.848;2023-02-11T05:15:41;98603.53;;;5.76;55.43
40992;BME280;29633;49.168;9.848;2023-02-11T05:18:06;98606.19;;;5.75;55.53
40992;BME280;29633;49.168;9.848;2023-02-11T05:20:32;98605.13;;;5.80;55.47
40992;BME280;29633;49.168;9.848;2023-02-11T05:23:00;98607.53;;;5.86;55.41
40992;BME280;29633;49.168;9.848;2023-02-11T05:25:25;98599.75;;;5.89;55.41
40992;BME280;29633;49.168;9.848;2023-02-11T05:27:51;98597.94;;;5.91;55.32
40992;BME280;29633;49.168;9.848;2023-02-11T05:30:16;98597.78;;;5.96;55.42
40992;BME280;29633;49.168;9.848;2023-02-11T05:32:42;98595.00;;;6.02;55.48
40992;BME280;29633;49.168;9.848;2023-02-11T05:35:08;98595.75;;;6.06;55.34
40992;BME280;29633;49.168;9.848;2023-02-11T05:37:34;98597.22;;;6.13;55.29
40992;BME280;29633;49.168;9.848;2023-02-11T05:39:59;98590.34;;;6.13;55.36
40992;BME280;29633;49.168;9.848;2023-02-11T05:42:25;98590.31;;;6.15;55.35
40992;BME280;29633;49.168;9.848;2023-02-11T05:44:51;98594.63;;;6.14;55.49
40992;BME280;29633;49.168;9.848;2023-02-11T05:47:16;98602.28;;;6.16;55.68
40992;BME280;29633;49.168;9.848;2023-02-11T05:49:42;98603.00;;;6.19;55.59
40992;BME280;29633;49.168;9.848;2023-02-11T05:52:07;98603.81;;;6.21;55.49
40992;BME280;29633;49.168;9.848;2023-02-11T05:54:33;98593.34;;;6.26;55.45
40992;BME280;29633;49.168;9.848;2023-02-11T05:56:58;98589.00;;;6.28;55.61
40992;BME280;29633;49.168;9.848;2023-02-11T05:59:24;98583.75;;;6.29;55.50
40992;BME280;29633;49.168;9.848;2023-02-11T06:01:50;98588.84;;;6.32;55.45
40992;BME280;29633;49.168;9.848;2023-02-11T06:04:16;98590.50;;;6.33;55.53
40992;BME280;29633;49.168;9.848;2023-02-11T06:06:41;98589.69;;;6.33;55.56
40992;BME280;29633;49.168;9.848;2023-02-11T06:09:08;98587.25;;;6.28;55.63
40992;BME280;29633;49.168;9.848;2023-02-11T06:11:34;98578.72;;;6.26;55.72
40992;BME280;29633;49.168;9.848;2023-02-11T06:14:00;98574.56;;;6.22;55.77
40992;BME280;29633;49.168;9.848;2023-02-11T06:16:26;98578.94;;;6.20;55.82
40992;BME280;29633;49.168;9.848;2023-02-11T06:18:51;98581.53;;;6.20;55.58
40992;BME280;29633;49.168;9.848;2023-02-11T06:21:17;98578.91;;;6.22;55.79
40992;BME280;29633;49.168;9.848;2023-02-11T06:23:42;98571.00;;;6.26;55.77
40992;BME280;29633;49.168;9.848;2023-02-11T06:26:19;98573.47;;;6.29;55.98
40992;BME280;29633;49.168;9.848;2023-02-11T06:28:45;98588.03;;;6.30;55.88
40992;BME280;29633;49.168;9.848;2023-02-11T06:31:10;98585.31;;;6.35;55.78
40992;BME280;29633;49.168;9.848;2023-02-11T06:33:36;98591.31;;;6.35;55.80
40992;BME280;29633;49.168;9.848;2023-02-11T06:36:03;98591.22;;;6.37;55.79
40992;BME280;29633;49.168;9.848;2023-02-11T06:38:29;98597.06;;;6.42;56.04
40992;BME280;29633;49.168;9.848;2023-02-11T06:40:55;98594.53;;;6.40;55.81
40992;BME280;29633;49.168;9.848;2023-02-11T06:43:21;98597.06;;;6.42;55.88
40992;BME280;29633;49.168;9.848;2023-02-11T06:45:54;98587.72;;;6.39;55.90
40992;BME280;29633;49.168;9.848;2023-02-11T06:48:20;98584.34;;;6.37;55.92
40992;BME280;29633;49.168;9.848;2023-02-11T06:50:46;98592.16;;;6.36;56.05
40992;BME280;29633;49.168;9.848;2023-02-11T06:53:12;98582.78;;;6.33;56.00
40992;BME280;29633;49.168;9.848;2023-02-11T06:55:38;98581.03;;;6.34;56.01
40992;BME280;29633;49.168;9.848;2023-02-11T06:58:03;98581.16;;;6.31;56.05
40992;BME280;29633;49.168;9.848;2023-02-11T07:00:29;98578.56;;;6.31;56.10
40992;BME280;29633;49.168;9.848;2023-02-11T07:02:54;98569.97;;;6.32;55.97
40992;BME280;29633;49.168;9.848;2023-02-11T07:05:20;98588.88;;;6.31;56.15
40992;BME280;29633;49.168;9.848;2023-02-11T07:07:46;98591.56;;;6.28;55.99
40992;BME280;29633;49.168;9.848;2023-02-11T07:10:11;98588.91;;;6.29;56.12
40992;BME280;29633;49.168;9.848;2023-02-11T07:12:37;98582.03;;;6.30;56.22
40992;BME280;29633;49.168;9.848;2023-02-11T07:15:04;98578.53;;;6.32;56.08
40992;BME280;29633;49.168;9.848;2023-02-11T07:17:29;98575.91;;;6.34;56.10
40992;BME280;29633;49.168;9.848;2023-02-11T07:19:55;98578.34;;;6.37;56.23
40992;BME280;29633;49.168;9.848;2023-02-11T07:22:20;98578.28;;;6.40;56.03
40992;BME280;29633;49.168;9.848;2023-02-11T07:24:46;98572.00;;;6.47;55.98
40992;BME280;29633;49.168;9.848;2023-02-11T07:27:12;98577.72;;;6.55;55.89
40992;BME280;29633;49.168;9.848;2023-02-11T07:29:37;98571.63;;;6.58;55.97
40992;BME280;29633;49.168;9.848;2023-02-11T07:32:04;98574.81;;;6.64;56.00
40992;BME280;29633;49.168;9.848;2023-02-11T07:34:30;98571.53;;;6.61;55.99
40992;BME280;29633;49.168;9.848;2023-02-11T07:36:55;98573.25;;;6.60;56.00
40992;BME280;29633;49.168;9.848;2023-02-11T07:39:21;98580.75;;;6.66;56.10
40992;BME280;29633;49.168;9.848;2023-02-11T07:41:47;98584.00;;;6.71;55.97
40992;BME280;29633;49.168;9.848;2023-02-11T07:44:14;98584.75;;;6.75;55.98
40992;BME280;29633;49.168;9.848;2023-02-11T07:46:39;98581.22;;;6.77;55.95
40992;BME280;29633;49.168;9.848;2023-02-11T07:49:09;98582.91;;;6.78;56.02
40992;BME280;29633;49.168;9.848;2023-02-11T07:51:34;98592.31;;;6.79;55.95
40992;BME280;29633;49.168;9.848;2023-02-11T07:54:00;98585.44;;;6.80;55.97
40992;BME280;29633;49.168;9.848;2023-02-11T07:56:27;98577.78;;;6.77;55.94
40992;BME280;29633;49.168;9.848;2023-02-11T07:58:53;98577.91;;;6.74;56.17
40992;BME280;29633;49.168;9.848;2023-02-11T08:01:21;98579.81;;;6.69;56.23
40992;BME280;29633;49.168;9.848;2023-02-11T08:03:49;98587.47;;;6.70;56.32
40992;BME280;29633;49.168;9.848;2023-02-11T08:06:17;98591.63;;;6.74;56.32
40992;BME280;29633;49.168;9.848;2023-02-11T08:08:45;98587.38;;;6.73;56.29
40992;BME280;29633;49.168;9.848;2023-02-11T08:11:22;98588.94;;;6.77;56.25
40992;BME280;29633;49.168;9.848;2023-02-11T08:13:48;98605.97;;;6.81;56.36
40992;BME280;29633;49.168;9.848;2023-02-11T08:16:40;98607.44;;;6.88;56.34
40992;BME280;29633;49.168;9.848;2023-02-11T08:19:12;98609.00;;;6.92;56.31
40992;BME280;29633;49.168;9.848;2023-02-11T08:21:39;98601.16;;;6.96;56.26
40992;BME280;29633;49.168;9.848;2023-02-11T08:24:05;98600.03;;;7.03;56.28
40992;BME280;29633;49.168;9.848;2023-02-11T08:26:34;98605.88;;;7.08;55.82
40992;BME280;29633;49.168;9.848;2023-02-11T08:29:01;98597.16;;;7.10;56.15
40992;BME280;29633;49.168;9.848;2023-02-11T08:31:35;98603.00;;;7.15;56.05
40992;BME280;29633;49.168;9.848;2023-02-11T08:34:01;98590.97;;;7.16;56.03
40992;BME280;29633;49.168;9.848;2023-02-11T08:36:29;98593.59;;;7.14;56.12
40992;BME280;29633;49.168;9.848;2023-02-11T08:38:57;98594.44;;;7.15;56.13
40992;BME280;29633;49.168;9.848;2023-02-11T08:41:24;98598.69;;;7.16;56.27
40992;BME280;29633;49.168;9.848;2023-02-11T08:43:50;98602.03;;;7.18;56.32
40992;BME280;29633;49.168;9.848;2023-02-11T08:46:17;98605.44;;;7.20;56.40
40992;BME280;29633;49.168;9.848;2023-02-11T08:48:44;98612.06;;;7.25;56.34
40992;BME280;29633;49.168;9.848;2023-02-11T08:51:12;98613.66;;;7.29;56.41
40992;BME280;29633;49.168;9.848;2023-02-11T08:53:38;98611.91;;;7.30;56.23
40992;BME280;29633;49.168;9.848;2023-02-11T08:56:04;98606.50;;;7.36;56.42
40992;BME280;29633;49.168;9.848;2023-02-11T08:58:31;98605.03;;;7.52;56.26
40992;BME280;29633;49.168;9.848;2023-02-11T09:00:57;98603.91;;;8.01;55.68
40992;BME280;29633;49.168;9.848;2023-02-11T09:03:23;98592.38;;;8.50;55.18
40992;BME280;29633;49.168;9.848;2023-02-11T09:05:49;98587.06;;;9.48;53.84
40992;BME280;29633;49.168;9.848;2023-02-11T09:08:17;98587.47;;;10.62;52.39
40992;BME280;29633;49.168;9.848;2023-02-11T09:10:43;98596.63;;;11.49;51.60
40992;BME280;29633;49.168;9.848;2023-02-11T09:13:09;98598.19;;;11.99;51.68
40992;BME280;29633;49.168;9.848;2023-02-11T09:15:35;98593.00;;;12.28;52.03
40992;BME280;29633;49.168;9.848;2023-02-11T09:18:01;98584.97;;;12.61;52.25
40992;BME280;29633;49.168;9.848;2023-02-11T09:20:26;98592.97;;;12.87;52.41
40992;BME280;29633;49.168;9.848;2023-02-11T09:22:53;98585.53;;;12.95;53.02
40992;BME280;29633;49.168;9.848;2023-02-11T09:25:19;98589.06;;;13.08;52.92
40992;BME280;29633;49.168;9.848;2023-02-11T09:27:45;98587.34;;;13.35;52.92
40992;BME280;29633;49.168;9.848;2023-02-11T09:30:11;98585.75;;;13.47;53.03
40992;BME280;29633;49.168;9.848;2023-02-11T09:32:37;98576.06;;;13.63;53.20
40992;BME280;29633;49.168;9.848;2023-02-11T09:35:03;98585.59;;;13.76;53.43
40992;BME280;29633;49.168;9.848;2023-02-11T09:37:28;98585.69;;;14.14;53.29
40992;BME280;29633;49.168;9.848;2023-02-11T09:39:54;98574.06;;;15.08;52.45
40992;BME280;29633;49.168;9.848;2023-02-11T09:44:57;98564.41;;;16.40;51.38
40992;BME280;29633;49.168;9.848;2023-02-11T09:47:45;98565.59;;;16.36;51.96
40992;BME280;29633;49.168;9.848;2023-02-11T09:50:13;98573.09;;;16.41;52.19
40992;BME280;29633;49.168;9.848;2023-02-11T09:55:22;98585.09;;;16.43;52.69
40992;BME280;29633;49.168;9.848;2023-02-11T09:57:49;98577.53;;;16.51;52.85
40992;BME280;29633;49.168;9.848;2023-02-11T10:00:52;98579.81;;;16.56;52.97
40992;BME280;29633;49.168;9.848;2023-02-11T10:06:46;98579.00;;;16.20;54.08
40992;BME280;29633;49.168;9.848;2023-02-11T10:23:39;98572.28;;;17.51;53.35
40992;BME280;29633;49.168;9.848;2023-02-11T10:26:15;98573.28;;;17.93;53.07
40992;BME280;29633;49.168;9.848;2023-02-11T10:28:43;98575.13;;;18.34;52.71
40992;BME280;29633;49.168;9.848;2023-02-11T10:31:12;98569.50;;;18.80;52.21
40992;BME280;29633;49.168;9.848;2023-02-11T10:33:54;98577.56;;;19.28;51.90
40992;BME280;29633;49.168;9.848;2023-02-11T10:36:27;98572.56;;;19.46;51.65
40992;BME280;29633;49.168;9.848;2023-02-11T10:38:54;98564.84;;;19.63;51.19
40992;BME280;29633;49.168;9.848;2023-02-11T10:41:29;98570.66;;;19.67;51.28
40992;BME280;29633;49.168;9.848;2023-02-11T10:43:59;98565.38;;;19.67;50.77
40992;BME280;29633;49.168;9.848;2023-02-11T10:46:28;98557.84;;;19.43;50.81
40992;BME280;29633;49.168;9.848;2023-02-11T10:48:55;98556.69;;;18.96;51.50
40992;BME280;29633;49.168;9.848;2023-02-11T10:51:22;98557.88;;;18.41;51.99
40992;BME280;29633;49.168;9.848;2023-02-11T10:56:33;98576.16;;;17.36;53.15
40992;BME280;29633;49.168;9.848;2023-02-11T10:59:04;98568.78;;;16.97;53.34
40992;BME280;29633;49.168;9.848;2023-02-11T11:01:47;98564.97;;;16.67;53.75
40992;BME280;29633;49.168;9.848;2023-02-11T11:06:58;98570.13;;;16.34;53.81
40992;BME280;29633;49.168;9.848;2023-02-11T11:09:52;98570.19;;;16.21;53.87
40992;BME280;29633;49.168;9.848;2023-02-11T11:12:33;98567.63;;;15.98;54.06
40992;BME280;29633;49.168;9.848;2023-02-11T11:15:20;98576.03;;;15.90;54.00
40992;BME280;29633;49.168;9.848;2023-02-11T11:17:48;98571.63;;;15.91;54.19
40992;BME280;29633;49.168;9.848;2023-02-11T11:20:28;98571.84;;;15.88;54.14
40992;BME280;29633;49.168;9.848;2023-02-11T11:23:18;98571.56;;;15.80;54.22
40992;BME280;29633;49.168;9.848;2023-02-11T11:26:09;98573.50;;;15.65;54.43
40992;BME280;29633;49.168;9.848;2023-02-11T11:33:52;98571.28;;;15.35;54.64
40992;BME280;29633;49.168;9.848;2023-02-11T11:36:20;98565.00;;;15.38;54.55
40992;BME280;29633;49.168;9.848;2023-02-11T11:38:56;98571.19;;;15.37;54.39
40992;BME280;29633;49.168;9.848;2023-02-11T11:41:29;98579.13;;;15.35;54.55
40992;BME280;29633;49.168;9.848;2023-02-11T11:43:58;98568.22;;;15.41;54.63
40992;BME280;29633;49.168;9.848;2023-02-11T11:46:35;98564.28;;;15.36;54.52
40992;BME280;29633;49.168;9.848;2023-02-11T11:49:10;98571.59;;;15.31;54.58
40992;BME280;29633;49.168;9.848;2023-02-11T11:51:37;98565.13;;;15.23;54.46
40992;BME280;29633;49.168;9.848;2023-02-11T11:54:08;98566.50;;;15.16;54.60
40992;BME280;29633;49.168;9.848;2023-02-11T11:56:51;98571.16;;;15.00;54.67
40992;BME280;29633;49.168;9.848;2023-02-11T11:59:18;98564.16;;;14.88;54.66
40992;BME280;29633;49.168;9.848;2023-02-11T12:07:18;98563.34;;;14.50;54.73
40992;BME280;29633;49.168;9.848;2023-02-11T12:21:18;98574.63;;;14.11;54.72
40992;BME280;29633;49.168;9.848;2023-02-11T12:23:57;98581.00;;;14.07;54.76
40992;BME280;29633;49.168;9.848;2023-02-11T12:26:54;98578.44;;;13.93;54.67
40992;BME280;29633;49.168;9.848;2023-02-11T12:32:47;98576.38;;;13.71;54.83
40992;BME280;29633;49.168;9.848;2023-02-11T12:40:42;98577.47;;;13.54;54.94
40992;BME280;29633;49.168;9.848;2023-02-11T12:51:23;98545.97;;;13.45;54.83
40992;BME280;29633;49.168;9.848;2023-02-11T12:59:44;98540.31;;;13.38;54.88
40992;BME280;29633;49.168;9.848;2023-02-11T13:02:23;98534.53;;;13.33;54.94
40992;BME280;29633;49.168;9.848;2023-02-11T13:04:54;98533.69;;;13.32;54.98
40992;BME280;29633;49.168;9.848;2023-02-11T13:07:27;98525.03;;;13.32;55.00
40992;BME280;29633;49.168;9.848;2023-02-11T13:10:08;98520.88;;;13.29;54.90
40992;BME280;29633;49.168;9.848;2023-02-11T13:12:42;98514.75;;;13.30;55.02
40992;BME280;29633;49.168;9.848;2023-02-11T13:15:28;98513.63;;;13.20;55.10
40992;BME280;29633;49.168;9.848;2023-02-11T13:18:01;98520.16;;;13.13;54.92
40992;BME280;29633;49.168;9.848;2023-02-11T13:20:44;98522.28;;;13.07;55.17
40992;BME280;29633;49.168;9.848;2023-02-11T13:23:28;98523.41;;;13.03;55.00
40992;BME280;29633;49.168;9.848;2023-02-11T13:26:11;98525.47;;;12.98;55.04
40992;BME280;29633;49.168;9.848;2023-02-11T13:28:55;98525.03;;;12.91;55.16
40992;BME280;29633;49.168;9.848;2023-02-11T13:31:22;98532.06;;;12.89;55.20
40992;BME280;29633;49.168;9.848;2023-02-11T13:33:51;98531.63;;;12.82;55.23
40992;BME280;29633;49.168;9.848;2023-02-11T13:36:22;98527.44;;;12.80;55.10
40992;BME280;29633;49.168;9.848;2023-02-11T13:38:57;98526.97;;;12.73;55.31
40992;BME280;29633;49.168;9.848;2023-02-11T13:41:40;98532.75;;;12.64;55.40
40992;BME280;29633;49.168;9.848;2023-02-11T13:46:56;98527.44;;;12.66;55.00
40992;BME280;29633;49.168;9.848;2023-02-11T13:49:34;98527.16;;;12.70;55.02
40992;BME280;29633;49.168;9.848;2023-02-11T13:52:04;98528.75;;;12.73;55.05
40992;BME280;29633;49.168;9.848;2023-02-11T13:54:31;98526.88;;;12.75;55.09
40992;BME280;29633;49.168;9.848;2023-02-11T13:57:20;98530.06;;;12.80;55.06
40992;BME280;29633;49.168;9.848;2023-02-11T13:59:54;98543.50;;;12.87;54.86
40992;BME280;29633;49.168;9.848;2023-02-11T14:02:34;98531.03;;;12.92;54.79
40992;BME280;29633;49.168;9.848;2023-02-11T14:05:22;98531.69;;;12.95;54.93
40992;BME280;29633;49.168;9.848;2023-02-11T14:08:11;98525.47;;;12.98;54.86
40992;BME280;29633;49.168;9.848;2023-02-11T14:11:07;98530.69;;;12.98;54.91
40992;BME280;29633;49.168;9.848;2023-02-11T14:16:13;98536.09;;;12.95;54.76
40992;BME280;29633;49.168;9.848;2023-02-11T14:21:28;98543.50;;;13.01;54.83
40992;BME280;29633;49.168;9.848;2023-02-11T14:26:44;98547.22;;;12.97;55.02
40992;BME280;29633;49.168;9.848;2023-02-11T14:34:43;98548.25;;;12.80;55.03
40992;BME280;29633;49.168;9.848;2023-02-11T14:40:01;98548.53;;;12.75;54.95
40992;BME280;29633;49.168;9.848;2023-02-11T14:42:30;98551.34;;;12.72;55.11
40992;BME280;29633;49.168;9.848;2023-02-11T14:45:01;98555.88;;;12.69;55.17
40992;BME280;29633;49.168;9.848;2023-02-11T14:47:32;98552.72;;;12.64;55.43
40992;BME280;29633;49.168;9.848;2023-02-11T14:50:01;98550.22;;;12.62;55.09
40992;BME280;29633;49.168;9.848;2023-02-11T14:52:31;98542.50;;;12.61;54.96
40992;BME280;29633;49.168;9.848;2023-02-11T14:57:33;98547.25;;;12.54;55.17
40992;BME280;29633;49.168;9.848;2023-02-11T15:00:18;98545.56;;;12.53;55.18
40992;BME280;29633;49.168;9.848;2023-02-11T15:02:45;98542.94;;;12.53;54.92
40992;BME280;29633;49.168;9.848;2023-02-11T15:05:22;98548.88;;;12.55;54.91
40992;BME280;29633;49.168;9.848;2023-02-11T15:07:53;98552.25;;;12.57;55.04
40992;BME280;29633;49.168;9.848;2023-02-11T15:10:37;98564.88;;;12.49;55.12
40992;BME280;29633;49.168;9.848;2023-02-11T15:13:05;98558.75;;;12.50;55.19
40992;BME280;29633;49.168;9.848;2023-02-11T15:15:32;98560.44;;;12.51;54.97
40992;BME280;29633;49.168;9.848;2023-02-11T15:18:01;98557.53;;;12.42;55.20
40992;BME280;29633;49.168;9.848;2023-02-11T15:20:30;98563.81;;;12.38;54.98
40992;BME280;29633;49.168;9.848;2023-02-11T15:23:01;98568.28;;;12.36;55.13